createdAt,value
2022-11-30T00:01:17.655Z,60.00
2022-11-30T00:03:44.461Z,58.03
2022-11-30T00:06:13.631Z,57.07
2022-11-30T00:08:40.170Z,62.37
2022-11-30T00:11:15.256Z,59.37
2022-11-30T00:13:42.132Z,61.77
2022-11-30T00:16:08.925Z,60.90
2022-11-30T00:18:36.347Z,63.30
2022-11-30T00:21:04.871Z,58.57
2022-11-30T00:23:35.224Z,58.40
2022-11-30T00:26:06.652Z,62.57
2022-11-30T00:28:34.277Z,60.07
2022-11-30T00:31:02.695Z,60.80
2022-11-30T00:33:29.644Z,60.80
2022-11-30T00:36:00.612Z,62.07
2022-11-30T00:38:27.218Z,64.80
2022-11-30T00:40:53.826Z,64.17
2022-11-30T00:43:20.532Z,63.47
2022-11-30T00:45:47.050Z,65.33
2022-11-30T00:48:13.535Z,61.60
2022-11-30T00:50:40.099Z,61.50
2022-11-30T00:53:06.582Z,67.80
2022-11-30T00:55:33.439Z,60.50
2022-11-30T00:58:00.642Z,62.53
2022-11-30T01:00:27.818Z,62.73
2022-11-30T01:02:55.117Z,60.70
2022-11-30T01:05:21.658Z,60.93
2022-11-30T01:07:48.146Z,67.13
2022-11-30T01:10:14.746Z,63.10
2022-11-30T01:12:41.226Z,64.77
2022-11-30T01:15:08.187Z,62.60
2022-11-30T01:17:34.680Z,60.87
2022-11-30T01:20:01.125Z,61.30
2022-11-30T01:22:27.624Z,62.83
2022-11-30T01:24:54.035Z,62.37
2022-11-30T01:27:20.496Z,59.33
2022-11-30T01:29:46.948Z,64.07
2022-11-30T01:32:13.390Z,57.50
2022-11-30T01:34:39.841Z,62.23
2022-11-30T01:37:06.335Z,63.97
2022-11-30T01:39:32.764Z,60.70
2022-11-30T01:41:59.235Z,58.53
2022-11-30T01:44:28.572Z,61.90
2022-11-30T01:46:58.880Z,62.43
2022-11-30T01:50:00.791Z,61.17
2022-11-30T01:52:29.711Z,66.93
2022-11-30T01:55:19.462Z,63.17
2022-11-30T01:57:50.582Z,65.87
2022-11-30T02:00:17.384Z,66.70
2022-11-30T02:02:46.900Z,64.23
2022-11-30T02:05:14.599Z,71.03
2022-11-30T02:07:41.438Z,73.57
2022-11-30T02:10:12.732Z,70.47
2022-11-30T02:13:08.391Z,70.87
2022-11-30T02:15:58.130Z,75.73
2022-11-30T02:18:33.215Z,73.50
2022-11-30T02:21:04.998Z,73.23
2022-11-30T02:24:02.566Z,72.70
2022-11-30T02:27:10.856Z,76.67
2022-11-30T02:29:55.212Z,70.63
2022-11-30T02:32:27.940Z,72.93
2022-11-30T02:34:56.842Z,75.50
2022-11-30T02:37:24.924Z,72.27
2022-11-30T02:39:51.360Z,71.13
2022-11-30T02:42:18.086Z,73.10
2022-11-30T02:44:47.764Z,72.80
2022-11-30T02:47:20.402Z,75.23
2022-11-30T02:49:55.733Z,75.60
2022-11-30T02:52:24.539Z,75.53
2022-11-30T02:54:50.999Z,73.53
2022-11-30T02:57:17.474Z,81.17
2022-11-30T02:59:43.980Z,76.10
2022-11-30T03:02:10.462Z,71.13
2022-11-30T03:04:36.914Z,76.03
2022-11-30T03:07:03.542Z,73.60
2022-11-30T03:09:30.026Z,73.23
2022-11-30T03:11:56.459Z,73.53
2022-11-30T03:14:22.912Z,69.07
2022-11-30T03:16:49.407Z,76.30
2022-11-30T03:19:15.854Z,80.90
2022-11-30T03:21:42.296Z,74.20
2022-11-30T03:24:08.789Z,74.10
2022-11-30T03:26:35.271Z,76.83
2022-11-30T03:29:01.808Z,76.03
2022-11-30T03:31:28.298Z,78.17
2022-11-30T03:33:54.766Z,80.63
2022-11-30T03:36:21.213Z,78.37
2022-11-30T03:38:47.923Z,78.77
2022-11-30T03:41:16.609Z,76.80
2022-11-30T03:43:43.879Z,81.33
2022-11-30T03:46:10.679Z,84.00
2022-11-30T03:48:37.220Z,78.23
2022-11-30T03:51:04.660Z,79.37
2022-11-30T03:53:31.486Z,77.77
2022-11-30T03:56:00.107Z,85.03
2022-11-30T03:58:26.813Z,85.03
2022-11-30T04:01:08.551Z,79.97
2022-11-30T04:03:35.496Z,82.30
2022-11-30T04:06:02.787Z,80.67
2022-11-30T04:08:30.104Z,83.10
2022-11-30T04:10:57.903Z,83.43
2022-11-30T04:13:24.947Z,81.80
2022-11-30T04:15:52.863Z,93.23
2022-11-30T04:18:20.924Z,84.70
2022-11-30T04:20:47.562Z,88.57
2022-11-30T04:23:14.020Z,86.47
2022-11-30T04:25:41.219Z,85.33
2022-11-30T04:28:08.628Z,86.60
2022-11-30T04:30:35.927Z,88.60
2022-11-30T04:33:02.870Z,80.93
2022-11-30T04:35:29.412Z,82.23
2022-11-30T04:37:55.844Z,87.87
2022-11-30T04:40:22.456Z,81.67
2022-11-30T04:42:48.878Z,82.37
2022-11-30T04:45:15.466Z,90.83
2022-11-30T04:47:42.011Z,85.33
2022-11-30T04:50:08.971Z,89.60
2022-11-30T04:52:35.667Z,87.90
2022-11-30T04:55:04.359Z,84.53
2022-11-30T04:57:31.535Z,82.53
2022-11-30T04:59:58.016Z,83.03
2022-11-30T05:02:24.461Z,85.53
2022-11-30T05:04:51.231Z,82.27
2022-11-30T05:07:17.892Z,79.40
2022-11-30T05:09:44.430Z,78.17
2022-11-30T05:12:10.856Z,82.10
2022-11-30T05:14:37.336Z,83.70
2022-11-30T05:17:03.868Z,80.83
2022-11-30T05:19:30.316Z,85.47
2022-11-30T05:21:56.756Z,80.23
2022-11-30T05:24:23.258Z,85.97
2022-11-30T05:26:49.684Z,83.33
2022-11-30T05:29:16.137Z,82.87
2022-11-30T05:31:42.584Z,83.93
2022-11-30T05:34:09.167Z,72.27
2022-11-30T05:36:35.591Z,81.30
2022-11-30T05:39:02.149Z,82.67
2022-11-30T05:41:28.628Z,78.97
2022-11-30T05:43:55.182Z,82.03
2022-11-30T05:46:21.718Z,82.13
2022-11-30T05:48:48.214Z,80.93
2022-11-30T05:51:16.807Z,82.17
2022-11-30T05:53:44.643Z,90.10
2022-11-30T05:56:15.553Z,83.03
2022-11-30T05:58:42.206Z,77.20
2022-11-30T06:01:08.800Z,79.23
2022-11-30T06:03:35.876Z,83.63
2022-11-30T06:06:02.361Z,80.73
2022-11-30T06:08:28.900Z,79.10
2022-11-30T06:11:00.318Z,80.37
2022-11-30T06:13:28.979Z,82.60
2022-11-30T06:15:59.423Z,84.73
2022-11-30T06:18:26.012Z,91.10
2022-11-30T06:20:52.471Z,90.77
2022-11-30T06:23:18.903Z,87.37
2022-11-30T06:25:45.379Z,96.40
2022-11-30T06:28:12.076Z,96.27
2022-11-30T06:30:38.785Z,94.20
2022-11-30T06:33:05.263Z,103.90
2022-11-30T06:35:31.783Z,109.63
2022-11-30T06:38:00.442Z,102.10
2022-11-30T06:40:28.272Z,100.23
2022-11-30T06:42:54.948Z,95.97
2022-11-30T06:45:21.425Z,100.27
2022-11-30T06:47:47.927Z,102.57
2022-11-30T06:50:15.159Z,103.27
2022-11-30T06:52:41.595Z,107.80
2022-11-30T06:55:08.414Z,96.63
2022-11-30T06:57:35.002Z,102.40
2022-11-30T07:00:01.549Z,100.20
2022-11-30T07:02:27.981Z,101.60
2022-11-30T07:04:54.452Z,105.47
2022-11-30T07:07:21.357Z,99.13
2022-11-30T07:09:47.908Z,105.50
2022-11-30T07:12:14.376Z,101.37
2022-11-30T07:14:40.847Z,98.60
2022-11-30T07:17:07.291Z,106.77
2022-11-30T07:19:37.222Z,99.70
2022-11-30T07:22:03.806Z,100.77
2022-11-30T07:24:49.194Z,102.27
2022-11-30T07:27:15.835Z,104.23
2022-11-30T07:29:42.310Z,98.10
2022-11-30T07:32:08.802Z,108.60
2022-11-30T07:34:35.307Z,101.23
2022-11-30T07:37:01.770Z,113.43
2022-11-30T07:39:28.223Z,104.73
2022-11-30T07:41:54.715Z,104.43
2022-11-30T07:44:21.181Z,94.83
2022-11-30T07:46:47.636Z,105.87
2022-11-30T07:49:14.100Z,98.50
2022-11-30T07:51:40.619Z,95.23
2022-11-30T07:54:07.045Z,93.13
2022-11-30T07:56:33.547Z,94.10
2022-11-30T07:59:01.376Z,96.90
2022-11-30T08:01:31.136Z,95.40
2022-11-30T08:03:58.391Z,97.53
2022-11-30T08:06:29.823Z,97.87
2022-11-30T08:09:02.355Z,94.33
2022-11-30T08:11:30.779Z,90.70
2022-11-30T08:13:57.423Z,98.87
2022-11-30T08:16:26.346Z,100.93
2022-11-30T08:18:53.142Z,97.00
2022-11-30T08:21:20.983Z,90.90
2022-11-30T08:23:49.591Z,87.43
2022-11-30T08:26:18.472Z,95.03
2022-11-30T08:28:46.375Z,93.03
2022-11-30T08:31:25.432Z,88.03
2022-11-30T08:34:11.781Z,90.67
2022-11-30T08:36:38.813Z,93.90
2022-11-30T08:39:06.411Z,93.63
2022-11-30T08:41:34.900Z,94.20
2022-11-30T08:44:01.965Z,91.13
2022-11-30T08:46:50.459Z,94.63
2022-11-30T08:49:23.919Z,89.47
2022-11-30T08:54:42.815Z,95.77
2022-11-30T08:57:09.639Z,93.97
2022-11-30T08:59:36.112Z,98.87
2022-11-30T09:02:02.691Z,93.57
2022-11-30T09:04:29.142Z,95.43
2022-11-30T09:06:59.168Z,89.03
2022-11-30T09:09:25.940Z,91.57
2022-11-30T09:11:52.503Z,88.50
2022-11-30T09:14:18.994Z,89.93
2022-11-30T09:16:45.448Z,89.57
2022-11-30T09:19:11.967Z,85.97
2022-11-30T09:21:38.659Z,88.17
2022-11-30T09:24:05.290Z,90.10
2022-11-30T09:26:31.748Z,87.57
2022-11-30T09:28:58.177Z,92.17
2022-11-30T09:31:26.431Z,85.40
2022-11-30T09:33:54.954Z,91.40
2022-11-30T09:36:22.247Z,90.90
2022-11-30T09:38:48.876Z,92.87
2022-11-30T09:41:18.363Z,85.67
2022-11-30T09:43:57.027Z,93.40
2022-11-30T09:46:27.934Z,98.37
2022-11-30T09:49:07.778Z,89.37
2022-11-30T09:51:40.049Z,94.47
2022-11-30T09:54:12.123Z,92.37
2022-11-30T09:56:40.546Z,96.37
2022-11-30T09:59:14.901Z,89.00
2022-11-30T10:01:46.136Z,96.00
2022-11-30T10:04:24.065Z,93.40
2022-11-30T10:07:00.865Z,97.33
2022-11-30T10:09:33.543Z,99.00
2022-11-30T10:12:02.678Z,89.30
2022-11-30T10:14:50.663Z,98.90
2022-11-30T10:17:47.657Z,97.33
2022-11-30T10:20:18.958Z,98.10
2022-11-30T10:23:04.262Z,85.17
2022-11-30T10:25:40.840Z,95.47
2022-11-30T10:28:45.680Z,93.37
2022-11-30T10:31:10.676Z,91.83
2022-11-30T10:33:50.527Z,95.33
2022-11-30T10:36:33.061Z,98.83
2022-11-30T10:39:01.325Z,94.13
2022-11-30T10:41:44.371Z,96.87
2022-11-30T10:44:26.099Z,100.37
2022-11-30T10:47:00.577Z,106.00
2022-11-30T10:49:29.524Z,93.13
2022-11-30T10:52:01.514Z,93.50
2022-11-30T10:54:30.276Z,85.30
2022-11-30T10:56:59.557Z,94.60
2022-11-30T10:59:48.249Z,102.33
2022-11-30T11:02:36.843Z,99.07
2022-11-30T11:05:25.799Z,92.80
2022-11-30T11:08:06.751Z,88.37
2022-11-30T11:10:44.812Z,95.37
2022-11-30T11:13:35.507Z,91.00
2022-11-30T11:16:03.735Z,90.83
2022-11-30T11:18:32.339Z,84.67
2022-11-30T11:21:06.216Z,87.80
2022-11-30T11:23:39.007Z,86.07
2022-11-30T11:26:17.925Z,77.27
2022-11-30T11:28:46.519Z,80.00
2022-11-30T11:31:44.097Z,88.20
2022-11-30T11:34:25.743Z,82.80
2022-11-30T11:37:06.794Z,85.83
2022-11-30T11:39:33.407Z,85.90
2022-11-30T11:42:00.458Z,80.40
2022-11-30T11:44:28.084Z,85.37
2022-11-30T11:47:02.635Z,83.43
2022-11-30T11:49:35.106Z,90.77
2022-11-30T11:52:13.778Z,85.27
2022-11-30T11:54:41.584Z,84.27
2022-11-30T11:57:13.550Z,84.47
2022-11-30T11:59:46.172Z,79.30
2022-11-30T12:02:18.883Z,80.93
2022-11-30T12:04:51.323Z,74.83
2022-11-30T12:07:46.901Z,79.57
2022-11-30T12:13:32.927Z,77.30
2022-11-30T12:16:05.388Z,76.80
2022-11-30T12:18:45.355Z,73.63
2022-11-30T12:21:16.609Z,77.90
2022-11-30T12:23:49.161Z,79.73
2022-11-30T12:26:38.505Z,78.13
2022-11-30T12:29:24.332Z,82.37
2022-11-30T12:31:57.148Z,82.90
2022-11-30T12:34:54.887Z,76.97
2022-11-30T12:37:36.326Z,80.80
2022-11-30T12:40:13.402Z,82.17
2022-11-30T12:42:55.228Z,78.77
2022-11-30T12:45:36.154Z,85.43
2022-11-30T12:48:14.052Z,75.07
2022-11-30T12:51:33.006Z,84.13
2022-11-30T12:54:05.654Z,91.20
2022-11-30T12:56:42.888Z,79.37
2022-11-30T12:59:23.864Z,80.33
2022-11-30T13:02:17.850Z,84.57
2022-11-30T13:05:00.580Z,79.50
2022-11-30T13:07:44.868Z,82.33
2022-11-30T13:10:52.977Z,82.10
2022-11-30T13:13:25.684Z,85.30
2022-11-30T13:15:52.288Z,85.17
2022-11-30T13:18:20.606Z,85.33
2022-11-30T13:20:51.747Z,84.27
2022-11-30T13:23:42.534Z,84.90
2022-11-30T13:26:35.932Z,81.77
2022-11-30T13:29:14.896Z,86.37
2022-11-30T13:31:47.523Z,83.33
2022-11-30T13:34:28.802Z,79.27
2022-11-30T13:37:06.683Z,80.73
2022-11-30T13:39:56.373Z,89.47
2022-11-30T13:42:34.406Z,81.03
2022-11-30T13:45:13.153Z,81.27
2022-11-30T13:47:40.821Z,81.50
2022-11-30T13:50:08.422Z,82.20
2022-11-30T13:53:03.350Z,75.00
2022-11-30T13:55:35.882Z,83.20
2022-11-30T13:58:05.809Z,81.80
2022-11-30T14:00:32.302Z,82.97
2022-11-30T14:03:22.749Z,80.17
2022-11-30T14:05:53.687Z,84.87
2022-11-30T14:08:23.206Z,81.37
2022-11-30T14:11:35.938Z,86.60
2022-11-30T14:14:44.882Z,81.23
2022-11-30T14:17:18.532Z,84.97
2022-11-30T14:19:47.298Z,76.43
2022-11-30T14:22:14.875Z,82.47
2022-11-30T14:24:44.379Z,77.37
2022-11-30T14:27:23.612Z,72.20
2022-11-30T14:29:53.412Z,78.53
2022-11-30T14:32:43.515Z,77.87
2022-11-30T14:35:16.045Z,76.23
2022-11-30T14:37:54.168Z,78.70
2022-11-30T14:40:23.521Z,75.53
2022-11-30T14:42:52.732Z,74.80
2022-11-30T14:45:22.103Z,80.60
2022-11-30T14:47:52.788Z,93.10
2022-11-30T14:50:25.601Z,104.17
2022-11-30T14:53:04.983Z,91.33
2022-11-30T14:55:40.808Z,85.60
2022-11-30T14:58:17.222Z,74.53
2022-11-30T15:00:45.060Z,78.20
2022-11-30T15:03:20.735Z,80.13
2022-11-30T15:05:50.722Z,75.23
2022-11-30T15:08:17.482Z,78.17
2022-11-30T15:10:44.127Z,78.93
2022-11-30T15:13:15.668Z,77.63
2022-11-30T15:15:53.987Z,80.17
2022-11-30T15:18:23.913Z,80.30
2022-11-30T15:21:02.266Z,78.87
2022-11-30T15:23:28.768Z,73.23
2022-11-30T15:26:11.958Z,76.30
2022-11-30T15:28:41.576Z,75.37
2022-11-30T15:31:10.867Z,80.77
2022-11-30T15:33:41.908Z,75.10
2022-11-30T15:36:33.162Z,82.07
2022-11-30T15:38:55.268Z,76.90
2022-11-30T15:41:24.121Z,77.23
2022-11-30T15:43:55.630Z,78.27
2022-11-30T15:46:55.967Z,81.40
2022-11-30T15:49:25.226Z,75.87
2022-11-30T15:51:59.310Z,79.10
2022-11-30T15:54:44.488Z,79.63
2022-11-30T15:57:11.518Z,73.07
2022-11-30T15:59:38.124Z,81.20
2022-11-30T16:02:08.333Z,75.73
2022-11-30T16:04:56.885Z,76.20
2022-11-30T16:07:37.875Z,76.53
2022-11-30T16:10:38.117Z,76.53
2022-11-30T16:13:05.286Z,70.23
2022-11-30T16:15:36.334Z,72.20
2022-11-30T16:18:18.970Z,73.60
2022-11-30T16:20:48.260Z,76.20
2022-11-30T16:23:15.621Z,71.87
2022-11-30T16:25:43.237Z,76.60
2022-11-30T16:28:14.987Z,73.77
2022-11-30T16:30:41.939Z,70.40
2022-11-30T16:33:23.043Z,71.93
2022-11-30T16:35:56.482Z,73.07
2022-11-30T16:38:24.208Z,73.77
2022-11-30T16:40:52.058Z,69.80
2022-11-30T16:43:18.656Z,68.73
2022-11-30T16:45:46.769Z,73.37
2022-11-30T16:48:14.359Z,69.00
2022-11-30T16:50:41.410Z,69.37
2022-11-30T16:53:11.720Z,72.90
2022-11-30T16:55:38.513Z,68.97
2022-11-30T16:58:05.260Z,74.00
2022-11-30T17:00:31.874Z,74.40
2022-11-30T17:03:02.938Z,71.03
2022-11-30T17:05:29.404Z,69.37
2022-11-30T17:07:56.031Z,77.90
2022-11-30T17:10:22.629Z,70.27
2022-11-30T17:12:49.211Z,69.27
2022-11-30T17:15:20.430Z,75.40
2022-11-30T17:17:46.903Z,69.00
2022-11-30T17:20:14.537Z,75.23
2022-11-30T17:22:42.194Z,78.13
2022-11-30T17:25:14.386Z,86.03
2022-11-30T17:27:41.340Z,78.63
2022-11-30T17:30:08.414Z,72.80
2022-11-30T17:32:35.008Z,81.10
2022-11-30T17:35:01.499Z,74.97
2022-11-30T17:37:28.509Z,76.60
2022-11-30T17:39:54.965Z,73.83
2022-11-30T17:42:22.271Z,71.03
2022-11-30T17:44:49.573Z,77.30
2022-11-30T17:47:16.310Z,81.80
2022-11-30T17:49:43.076Z,75.73
2022-11-30T17:52:09.752Z,86.53
2022-11-30T17:54:36.405Z,75.10
2022-11-30T17:57:04.492Z,76.40
2022-11-30T17:59:30.939Z,77.60
2022-11-30T18:01:57.571Z,81.10
2022-11-30T18:04:24.558Z,81.87
2022-11-30T18:06:51.059Z,78.63
2022-11-30T18:09:17.496Z,73.33
2022-11-30T18:11:43.942Z,72.90
2022-11-30T18:14:10.395Z,72.07
2022-11-30T18:16:37.598Z,73.07
2022-11-30T18:19:11.907Z,74.47
2022-11-30T18:21:40.259Z,75.70
2022-11-30T18:24:07.347Z,67.10
2022-11-30T18:26:37.155Z,73.47
2022-11-30T18:29:03.954Z,73.60
2022-11-30T18:31:30.932Z,76.03
2022-11-30T18:33:58.835Z,73.70
2022-11-30T18:36:25.874Z,71.10
2022-11-30T18:38:52.439Z,70.37
2022-11-30T18:41:18.912Z,66.37
2022-11-30T18:43:45.516Z,70.67
2022-11-30T18:46:13.134Z,69.87
2022-11-30T18:48:41.884Z,59.70
2022-11-30T18:51:11.593Z,52.17
2022-11-30T18:53:38.036Z,51.23
2022-11-30T18:56:13.252Z,52.57
2022-11-30T18:58:41.400Z,45.77
2022-11-30T19:01:20.463Z,50.73
2022-11-30T19:03:54.557Z,53.17
2022-11-30T19:06:21.109Z,50.70
2022-11-30T19:08:48.181Z,50.53
2022-11-30T19:11:15.420Z,56.07
2022-11-30T19:13:42.347Z,52.20
2022-11-30T19:16:11.931Z,49.63
2022-11-30T19:18:38.494Z,49.70
2022-11-30T19:21:09.627Z,48.83
2022-11-30T19:23:37.219Z,49.13
2022-11-30T19:26:04.992Z,48.30
2022-11-30T19:28:33.250Z,51.07
2022-11-30T19:31:00.164Z,49.83
2022-11-30T19:33:27.706Z,51.40
2022-11-30T19:36:00.082Z,50.50
2022-11-30T19:38:26.528Z,51.87
2022-11-30T19:40:52.989Z,51.20
2022-11-30T19:43:19.430Z,48.00
2022-11-30T19:45:45.911Z,50.57
2022-11-30T19:48:12.390Z,55.30
2022-11-30T19:50:38.857Z,55.90
2022-11-30T19:53:05.760Z,55.67
2022-11-30T19:55:32.744Z,60.10
2022-11-30T19:57:59.210Z,60.07
2022-11-30T20:00:25.811Z,56.40
2022-11-30T20:02:52.415Z,62.33
2022-11-30T20:05:18.919Z,61.87
2022-11-30T20:07:45.473Z,66.00
2022-11-30T20:10:15.431Z,66.50
2022-11-30T20:12:41.916Z,65.27
2022-11-30T20:15:09.172Z,69.00
2022-11-30T20:17:35.671Z,69.87
2022-11-30T20:20:02.325Z,72.83
2022-11-30T20:22:29.245Z,72.00
2022-11-30T20:24:56.615Z,96.23
2022-11-30T20:27:25.057Z,80.93
2022-11-30T20:29:52.291Z,70.60
2022-11-30T20:32:19.462Z,75.07
2022-11-30T20:34:46.302Z,75.30
2022-11-30T20:37:13.567Z,76.00
2022-11-30T20:39:45.714Z,79.27
2022-11-30T20:42:12.644Z,76.27
2022-11-30T20:44:39.071Z,80.57
2022-11-30T20:47:05.535Z,79.33
2022-11-30T20:49:32.030Z,85.27
2022-11-30T20:51:58.561Z,86.00
2022-11-30T20:54:25.122Z,92.27
2022-11-30T20:56:51.719Z,86.73
2022-11-30T20:59:23.715Z,78.13
2022-11-30T21:01:50.508Z,96.07
2022-11-30T21:04:17.025Z,90.00
2022-11-30T21:06:45.664Z,84.53
2022-11-30T21:09:16.948Z,85.90
2022-11-30T21:11:43.795Z,92.33
2022-11-30T21:14:10.615Z,86.07
2022-11-30T21:16:37.268Z,86.97
2022-11-30T21:19:04.077Z,87.97
2022-11-30T21:21:33.700Z,100.77
2022-11-30T21:24:02.302Z,106.83
2022-11-30T21:26:34.330Z,94.00
2022-11-30T21:29:06.951Z,144.53
2022-11-30T21:31:33.902Z,102.00
2022-11-30T21:34:00.535Z,126.43
2022-11-30T21:36:27.560Z,100.70
2022-11-30T21:39:02.617Z,104.97
2022-11-30T21:41:30.830Z,92.47
2022-11-30T21:43:57.344Z,88.63
2022-11-30T21:46:24.064Z,106.30
2022-11-30T21:48:51.134Z,87.13
2022-11-30T21:51:20.742Z,89.07
2022-11-30T21:53:49.744Z,93.17
2022-11-30T21:56:19.192Z,96.63
2022-11-30T21:58:47.035Z,108.67
2022-11-30T22:01:15.735Z,100.30
2022-11-30T22:03:42.544Z,103.70
2022-11-30T22:06:11.500Z,103.73
2022-11-30T22:08:38.087Z,100.17
2022-11-30T22:11:07.243Z,101.00
2022-11-30T22:13:34.304Z,101.13
2022-11-30T22:16:06.880Z,114.20
2022-11-30T22:18:33.614Z,99.13
2022-11-30T22:21:10.715Z,99.27
2022-11-30T22:23:39.192Z,105.87
2022-11-30T22:26:16.124Z,100.50
2022-11-30T22:28:44.468Z,106.90
2022-11-30T22:31:12.923Z,102.50
2022-11-30T22:33:40.983Z,91.87
2022-11-30T22:36:08.751Z,100.90
2022-11-30T22:38:35.280Z,94.63
2022-11-30T22:41:06.985Z,99.40
2022-11-30T22:43:33.862Z,92.00
2022-11-30T22:46:08.430Z,101.93
2022-11-30T22:48:35.182Z,93.80
2022-11-30T22:51:12.127Z,95.43
2022-11-30T22:53:39.419Z,91.27
2022-11-30T22:56:11.910Z,90.67
2022-11-30T22:58:39.153Z,93.13
2022-11-30T23:01:10.591Z,104.33
2022-11-30T23:03:37.360Z,89.40
2022-11-30T23:06:04.008Z,94.97
2022-11-30T23:08:31.342Z,92.00
2022-11-30T23:11:02.910Z,89.47
2022-11-30T23:13:29.824Z,101.87
2022-11-30T23:15:59.960Z,98.47
2022-11-30T23:18:27.923Z,92.07
2022-11-30T23:20:55.518Z,89.47
2022-11-30T23:23:23.067Z,93.03
2022-11-30T23:25:50.035Z,97.07
2022-11-30T23:28:17.259Z,86.90
2022-11-30T23:30:43.752Z,91.23
2022-11-30T23:33:10.490Z,95.50
2022-11-30T23:35:38.333Z,87.40
2022-11-30T23:38:04.788Z,89.67
2022-11-30T23:40:31.676Z,90.70
2022-11-30T23:42:58.148Z,90.00
2022-11-30T23:45:24.604Z,95.67
2022-11-30T23:47:51.052Z,87.37
2022-11-30T23:50:17.507Z,84.13
2022-11-30T23:52:43.996Z,96.40
2022-11-30T23:55:10.459Z,89.90
2022-11-30T23:57:36.899Z,91.00
